Time;durP1;ratioP1;P1;durP2;ratioP2;P2;SDS_P1;SDS_P2;PMS_P1;PMS_P2;Temp;Humidity;BMP_temperature;BMP_pressure;BME280_temperature;BME280_humidity;BME280_pressure;Samples;Min_cycle;Max_cycle;Signal;HPM_P1;HPM_P2
2021/04/03 00:00:41;;;;;;;12.88;9.00;;;14.60;99.90;;;14.00;69.24;100034.28;5026371;28;20073;-56
2021/04/03 00:03:10;;;;;;;14.63;9.18;;;14.60;99.90;;;14.02;69.34;100029.69;5028077;28;20111;-55
2021/04/03 00:05:37;;;;;;;17.35;9.40;;;14.60;99.90;;;13.99;69.33;100022.16;5027044;28;20235;-52
2021/04/03 00:08:05;;;;;;;13.55;9.25;;;14.60;99.90;;;13.94;69.45;100019.25;5029062;28;20037;-54
2021/04/03 00:10:47;;;;;;;13.05;8.77;;;14.60;99.90;;;13.87;69.78;100019.16;5027823;28;20103;-56
2021/04/03 00:13:16;;;;;;;12.20;9.10;;;14.40;99.90;;;13.85;69.69;100005.41;5027371;28;20505;-54
2021/04/03 00:15:44;;;;;;;10.73;8.38;;;14.40;99.90;;;13.89;69.46;99995.41;5009526;28;20041;-52
2021/04/03 00:18:15;;;;;;;14.05;8.32;;;14.40;99.90;;;13.94;69.01;99991.28;5028033;28;20021;-50
2021/04/03 00:20:41;;;;;;;14.40;9.68;;;14.50;99.90;;;13.97;68.77;99981.44;5027821;28;20281;-54
2021/04/03 00:23:07;;;;;;;11.63;9.18;;;14.50;99.90;;;14.02;68.06;99997.44;5028753;28;20045;-51
2021/04/03 00:25:34;;;;;;;20.20;9.45;;;14.50;99.90;;;14.06;67.67;99991.66;5027046;28;20257;-50
2021/04/03 00:28:01;;;;;;;16.15;9.05;;;14.60;99.90;;;14.09;67.69;99991.31;5028575;28;20132;-54
2021/04/03 00:30:27;;;;;;;13.50;9.02;;;14.60;99.90;;;14.09;67.62;99986.06;5026416;28;20100;-52
2021/04/03 00:32:58;;;;;;;14.38;9.60;;;14.60;99.90;;;14.13;67.30;99983.91;5027572;28;20033;-55
2021/04/03 00:35:36;;;;;;;12.15;8.70;;;14.70;99.90;;;14.18;67.31;99977.09;5027519;28;20086;-51
2021/04/03 00:38:04;;;;;;;14.73;8.75;;;14.70;99.90;;;14.19;67.35;99976.13;5027232;28;20045;-52
2021/04/03 00:40:40;;;;;;;13.65;9.93;;;14.70;99.90;;;14.19;67.66;99960.41;5026454;28;20491;-50
2021/04/03 00:43:14;;;;;;;17.25;10.15;;;14.70;99.90;;;14.12;68.42;99959.50;5028115;28;20042;-55
2021/04/03 00:45:40;;;;;;;17.70;11.63;;;14.70;99.90;;;13.95;69.74;99953.63;5027090;28;20033;-50
2021/04/03 00:48:07;;;;;;;17.48;10.93;;;14.60;99.90;;;13.87;70.24;99956.31;5028139;28;20029;-51
2021/04/03 00:50:38;;;;;;;16.55;10.43;;;14.50;99.90;;;13.77;70.78;99955.75;5026300;28;20037;-53
2021/04/03 00:53:13;;;;;;;15.65;10.73;;;14.40;99.90;;;13.73;71.68;99953.66;5027436;28;20068;-53
2021/04/03 00:55:40;;;;;;;16.02;11.68;;;14.30;99.90;;;13.66;71.81;99958.00;5026811;28;20044;-50
2021/04/03 00:58:07;;;;;;;14.43;10.45;;;14.20;99.90;;;13.67;72.18;99946.53;5028001;28;20131;-54
2021/04/03 01:00:33;;;;;;;12.05;6.80;;;14.30;99.90;;;13.71;71.28;99937.31;5026003;28;20137;-49
2021/04/03 01:02:59;;;;;;;12.38;8.32;;;14.30;99.90;;;13.79;71.18;99930.19;5027859;28;20336;-52
2021/04/03 01:05:27;;;;;;;9.55;8.02;;;14.30;99.90;;;13.83;71.01;99920.19;5008757;28;20044;-48
2021/04/03 01:07:54;;;;;;;13.15;7.97;;;14.40;99.90;;;13.85;70.90;99921.63;5027544;28;20087;-51
2021/04/03 01:10:28;;;;;;;8.38;6.15;;;14.30;99.90;;;13.96;70.41;99923.00;5025824;28;20037;-53
2021/04/03 01:13:45;;;;;;;10.32;6.68;;;14.40;99.90;;;14.07;70.06;99925.19;5010518;28;20025;-48
2021/04/03 01:16:38;;;;;;;9.27;5.15;;;14.50;99.90;;;14.22;68.95;99922.53;5005944;28;20048;-51
2021/04/03 01:19:40;;;;;;;12.10;6.72;;;14.70;99.90;;;14.29;68.62;99924.25;5000770;28;20408;-53
2021/04/03 01:22:28;;;;;;;7.88;5.43;;;14.80;99.90;;;14.34;68.44;99928.16;5027436;28;20052;-53
2021/04/03 01:26:14;;;;;;;8.23;5.78;;;14.80;99.90;;;14.34;68.79;99944.69;5026280;28;20053;-52
2021/04/03 01:29:43;;;;;;;7.18;5.60;;;14.90;99.90;;;14.39;68.32;99952.00;4940231;29;20384;-50
2021/04/03 01:32:09;;;;;;;11.18;5.25;;;14.80;99.90;;;14.45;67.38;99944.25;4868453;29;20049;-48
2021/04/03 01:34:40;;;;;;;6.97;4.93;;;14.90;99.90;;;14.52;66.82;99939.91;4870042;29;20045;-49
2021/04/03 01:37:13;;;;;;;6.93;5.25;;;15.00;99.90;;;14.48;67.61;99932.59;4870800;29;20148;-54
2021/04/03 01:39:45;;;;;;;10.30;5.47;;;15.00;99.90;;;14.38;67.86;99953.00;4854046;29;20051;-52
2021/04/03 01:42:18;;;;;;;12.60;6.50;;;14.90;99.90;;;14.29;69.38;99944.41;4870351;29;20482;-50
2021/04/03 01:45:04;;;;;;;10.00;5.63;;;14.90;99.90;;;14.14;71.36;99943.63;4869827;29;20060;-55
2021/04/03 01:47:33;;;;;;;9.30;6.35;;;14.80;99.90;;;13.97;71.80;99944.75;4870578;29;20148;-53
2021/04/03 01:50:00;;;;;;;11.98;7.20;;;14.60;99.90;;;13.81;72.77;99950.97;4869310;29;20496;-52
2021/04/03 01:52:30;;;;;;;17.92;6.40;;;14.40;99.90;;;13.72;73.49;99952.84;4869889;29;20093;-54
2021/04/03 01:55:06;;;;;;;5.57;4.35;;;14.40;99.90;;;13.75;71.84;99943.81;4869729;29;20106;-47
2021/04/03 01:57:33;;;;;;;7.63;3.60;;;14.30;99.90;;;13.76;70.48;99937.59;4870467;29;20052;-50
2021/04/03 02:00:03;;;;;;;9.20;3.15;;;14.30;99.90;;;13.74;69.20;99934.34;4902906;29;20052;-54
2021/04/03 02:02:29;;;;;;;8.13;3.38;;;14.30;99.90;;;13.59;69.43;99921.22;4908342;29;20064;-52
2021/04/03 02:04:57;;;;;;;4.03;2.30;;;14.20;99.90;;;13.46;69.04;99932.28;4906952;29;20154;-53
2021/04/03 02:07:24;;;;;;;2.90;1.67;;;14.10;99.90;;;13.43;68.34;99937.88;4943166;28;20112;-50
2021/04/03 02:09:53;;;;;;;2.60;1.85;;;14.00;99.90;;;13.33;68.74;99942.53;4987561;28;20038;-50
2021/04/03 02:12:20;;;;;;;5.43;2.92;;;13.90;99.90;;;13.22;70.37;99953.41;4985146;28;20030;-53
2021/04/03 02:14:53;;;;;;;5.88;3.35;;;13.80;99.90;;;13.18;71.37;99960.00;4987141;28;20030;-52
2021/04/03 02:17:21;;;;;;;7.90;3.13;;;13.80;99.90;;;13.13;71.19;99947.41;5002691;28;20112;-50
2021/04/03 02:19:47;;;;;;;3.38;2.45;;;13.70;99.90;;;13.25;69.87;99947.81;4986298;28;20035;-52
2021/04/03 02:22:20;;;;;;;3.28;1.38;;;13.70;99.90;;;13.22;69.35;99953.41;4984167;28;20094;-51
2021/04/03 02:24:46;;;;;;;3.58;2.22;;;13.80;99.90;;;13.21;69.00;99963.06;5001071;28;20026;-53
2021/04/03 02:27:12;;;;;;;3.42;1.90;;;13.80;99.90;;;13.24;68.07;99960.06;4985091;28;20447;-50
2021/04/03 02:29:39;;;;;;;1.77;1.08;;;13.80;99.90;;;13.19;67.97;99953.78;4988029;28;20073;-51
2021/04/03 02:32:07;;;;;;;1.95;1.73;;;13.80;99.90;;;13.10;69.47;99952.16;4986533;28;20042;-47
2021/04/03 02:34:35;;;;;;;4.35;2.80;;;13.70;99.90;;;13.05;70.32;99944.81;4985265;28;20081;-51
2021/04/03 02:37:01;;;;;;;8.00;2.80;;;13.70;99.90;;;12.94;71.60;99940.78;5006857;28;20057;-51
2021/04/03 02:39:27;;;;;;;3.67;1.70;;;13.60;99.90;;;12.92;71.11;99950.63;5026176;28;20068;-49
2021/04/03 02:42:00;;;;;;;1.77;1.38;;;13.50;99.90;;;12.90;70.79;99949.97;5025264;28;20159;-49
2021/04/03 02:44:45;;;;;;;2.88;1.83;;;13.50;99.90;;;12.89;71.34;99956.19;5029329;28;20407;-51
2021/04/03 02:47:18;;;;;;;3.30;2.28;;;13.50;99.90;;;12.81;72.30;99958.84;5014173;28;20051;-55
2021/04/03 02:49:54;;;;;;;4.35;2.70;;;13.50;99.90;;;12.69;75.55;99964.63;5028504;28;20034;-53
2021/04/03 02:52:22;;;;;;;12.35;4.55;;;13.30;99.90;;;12.57;75.19;99975.47;5012181;28;20048;-51
2021/04/03 02:54:50;;;;;;;6.50;4.38;;;13.20;99.90;;;12.51;75.75;99967.47;5028397;28;20811;-53
2021/04/03 02:57:17;;;;;;;5.40;4.32;;;13.20;99.90;;;12.48;75.99;99966.00;5012966;28;20037;-46
2021/04/03 02:59:50;;;;;;;6.03;3.85;;;13.10;99.90;;;12.49;76.18;99982.50;5010630;28;20045;-48
2021/04/03 03:02:21;;;;;;;9.25;3.40;;;13.10;99.90;;;12.47;75.62;99987.09;5028279;28;20044;-53
2021/04/03 03:04:48;;;;;;;4.45;2.78;;;13.10;99.90;;;12.40;75.18;99991.34;5011360;28;20060;-53
2021/04/03 03:07:15;;;;;;;4.05;1.80;;;13.00;99.90;;;12.34;74.49;99989.41;5011555;28;20049;-54
2021/04/03 03:09:49;;;;;;;5.30;2.60;;;13.00;99.90;;;12.32;73.49;99991.34;5011808;28;20557;-53
2021/04/03 03:12:21;;;;;;;2.40;1.55;;;12.90;99.90;;;12.26;73.14;99980.63;5011824;28;20044;-52
2021/04/03 03:14:49;;;;;;;2.30;2.10;;;12.80;99.90;;;12.29;73.00;99980.25;5027469;28;20035;-53
2021/04/03 03:17:15;;;;;;;2.97;2.53;;;12.90;99.90;;;12.25;73.71;99973.78;5012001;28;20267;-51
2021/04/03 03:19:42;;;;;;;3.90;2.03;;;12.90;99.90;;;12.21;74.28;99972.47;5028749;28;20048;-54
2021/04/03 03:22:09;;;;;;;2.47;1.63;;;12.80;99.90;;;12.13;74.22;99958.63;5012114;28;20437;-49
2021/04/03 03:24:35;;;;;;;3.53;0.93;;;12.80;99.90;;;12.03;73.70;99969.22;5027803;28;20029;-54
2021/04/03 03:27:03;;;;;;;2.03;1.00;;;12.70;99.90;;;11.88;73.79;99963.88;5010867;28;20080;-54
2021/04/03 03:29:32;;;;;;;1.42;0.93;;;12.60;99.90;;;11.77;74.44;99966.00;5010849;28;21525;-54
2021/04/03 03:31:58;;;;;;;2.10;0.68;;;12.50;99.90;;;11.71;74.21;99961.41;5030143;28;20029;-52
2021/04/03 03:34:24;;;;;;;1.77;0.90;;;12.30;99.90;;;11.68;74.12;99969.56;5027988;28;20509;-49
2021/04/03 03:36:51;;;;;;;0.85;0.55;;;12.30;99.90;;;11.60;73.68;99958.16;5027487;28;20365;-49
2021/04/03 03:39:17;;;;;;;1.25;0.30;;;12.20;99.90;;;11.52;72.93;99967.78;5028072;28;20040;-47
2021/04/03 03:41:44;;;;;;;1.08;0.40;;;12.20;99.90;;;11.49;72.84;99963.69;5011893;28;20041;-51
2021/04/03 03:44:11;;;;;;;0.82;0.30;;;12.10;99.90;;;11.48;73.34;99967.28;5009479;28;20040;-51
2021/04/03 03:46:37;;;;;;;2.45;0.95;;;12.10;99.90;;;11.41;73.13;99962.88;5010703;28;20107;-54
2021/04/03 03:49:04;;;;;;;0.73;0.30;;;12.10;99.90;;;11.38;73.53;99969.22;5027813;28;20029;-53
2021/04/03 03:51:31;;;;;;;0.40;0.20;;;12.00;99.90;;;11.37;73.05;99972.00;5028982;28;20034;-50
2021/04/03 03:53:58;;;;;;;0.95;0.20;;;12.00;99.90;;;11.34;72.50;99967.94;5027318;28;20061;-51
2021/04/03 03:56:24;;;;;;;2.95;0.20;;;12.00;99.90;;;11.29;72.39;99965.81;5027383;28;20045;-54
2021/04/03 03:58:50;;;;;;;0.20;0.10;;;11.90;99.90;;;11.21;72.02;99965.78;5025216;28;20045;-53
2021/04/03 04:01:16;;;;;;;0.38;0.20;;;11.90;99.90;;;11.22;71.91;99961.41;5027493;28;20045;-53
2021/04/03 04:03:42;;;;;;;0.60;0.17;;;11.90;99.90;;;11.15;72.17;99963.81;5024507;28;20408;-52
2021/04/03 04:06:08;;;;;;;0.40;0.17;;;11.80;99.90;;;11.18;71.58;99967.91;5028338;28;20164;-49
2021/04/03 04:08:34;;;;;;;0.30;0.10;;;11.80;99.90;;;11.15;71.47;99974.25;5009891;28;20042;-49
2021/04/03 04:11:00;;;;;;;0.50;0.10;;;11.80;99.90;;;11.15;70.63;99978.66;5028388;28;20453;-49
2021/04/03 04:13:26;;;;;;;0.40;0.20;;;11.80;99.90;;;11.14;70.53;99972.63;5027875;28;20496;-52
2021/04/03 04:15:52;;;;;;;0.70;0.20;;;11.80;99.90;;;11.11;69.96;99977.34;5028385;28;20057;-50
2021/04/03 04:18:19;;;;;;;0.57;0.10;;;11.70;99.90;;;11.05;70.35;99980.56;5027585;28;20057;-54
2021/04/03 04:20:45;;;;;;;0.40;0.20;;;11.70;99.90;;;10.95;70.89;99984.13;5028651;28;20041;-48
2021/04/03 04:23:11;;;;;;;1.70;0.20;;;11.60;99.90;;;11.04;69.97;99998.00;5027238;28;20458;-55
2021/04/03 04:25:37;;;;;;;0.80;0.22;;;11.60;99.90;;;11.05;69.51;99994.44;5027265;28;20055;-54
2021/04/03 04:28:03;;;;;;;0.98;0.20;;;11.60;99.90;;;11.02;68.96;99999.97;5027129;28;20523;-49
2021/04/03 04:30:29;;;;;;;1.48;0.20;;;11.60;99.90;;;11.00;68.92;99998.47;5028367;28;20041;-52
2021/04/03 04:32:55;;;;;;;0.50;0.30;;;11.60;99.90;;;10.93;69.01;100003.50;5027678;28;20029;-55
2021/04/03 04:35:21;;;;;;;3.60;0.30;;;11.60;99.90;;;10.78;69.80;100002.50;5028289;28;20127;-53
2021/04/03 04:37:47;;;;;;;2.05;0.30;;;11.40;99.90;;;10.81;69.38;100012.59;5026675;28;20037;-53
2021/04/03 04:40:15;;;;;;;0.82;0.28;;;11.40;99.90;;;10.79;69.26;99999.75;5026729;28;20084;-50
2021/04/03 04:42:43;;;;;;;2.35;0.45;;;11.40;99.90;;;10.80;68.83;100003.97;5026039;28;20089;-54
2021/04/03 04:45:11;;;;;;;0.98;0.45;;;11.40;99.90;;;10.86;68.10;100008.56;5017587;28;20358;-47
2021/04/03 04:47:37;;;;;;;2.08;0.45;;;11.40;99.90;;;10.91;68.02;100018.50;5026919;28;20025;-51
2021/04/03 04:50:07;;;;;;;1.73;0.40;;;11.50;99.90;;;10.81;68.94;100023.03;5028291;28;20089;-48
2021/04/03 04:52:34;;;;;;;1.70;0.30;;;11.40;99.90;;;10.75;69.04;100024.47;5025660;28;20043;-53
2021/04/03 04:55:01;;;;;;;0.73;0.30;;;11.40;99.90;;;10.75;69.12;100034.91;5027110;28;20037;-48
2021/04/03 04:57:27;;;;;;;2.05;0.60;;;11.40;99.90;;;10.71;69.57;100030.97;5026280;28;20520;-53
2021/04/03 04:59:55;;;;;;;1.15;0.30;;;11.30;99.90;;;10.69;69.42;100039.91;5024085;28;20340;-51
2021/04/03 05:02:22;;;;;;;1.48;0.40;;;11.30;99.90;;;10.72;69.07;100040.41;5026021;28;20138;-53
2021/04/03 05:04:48;;;;;;;1.92;0.25;;;11.30;99.90;;;10.73;68.76;100047.25;5027457;28;20052;-51
2021/04/03 05:07:14;;;;;;;1.75;0.45;;;11.40;99.90;;;10.73;68.93;100047.25;5024025;28;20065;-50
2021/04/03 05:09:39;;;;;;;1.45;0.25;;;11.40;99.90;;;10.71;69.50;100043.19;5027491;28;20468;-53
2021/04/03 05:12:06;;;;;;;1.67;0.45;;;11.40;99.90;;;10.70;69.75;100038.94;5026712;28;20048;-52
2021/04/03 05:14:33;;;;;;;4.40;0.45;;;11.40;99.90;;;10.68;69.99;100052.13;5026723;28;20497;-48
2021/04/03 05:16:58;;;;;;;1.48;0.40;;;11.40;99.90;;;10.73;70.02;100049.88;5026488;28;20041;-47
2021/04/03 05:19:24;;;;;;;2.88;0.38;;;11.40;99.90;;;10.92;68.32;100047.00;5024668;28;20492;-52
2021/04/03 05:21:50;;;;;;;1.52;0.85;;;11.60;99.90;;;11.17;67.13;100049.72;5027048;28;20092;-47
2021/04/03 05:24:16;;;;;;;1.23;0.63;;;11.80;99.90;;;11.51;65.51;100042.59;5026879;28;20440;-51
2021/04/03 05:26:42;;;;;;;4.55;1.77;;;12.30;99.90;;;12.82;62.89;100056.38;5026463;28;20041;-53
2021/04/03 05:29:08;;;;;;;1.95;1.15;;;13.30;99.90;;;14.31;58.49;100052.47;5027041;28;20038;-51
2021/04/03 05:31:34;;;;;;;1.33;0.65;;;15.40;96.10;;;15.47;54.57;100052.59;5026567;28;20392;-50
2021/04/03 05:34:00;;;;;;;1.83;0.45;;;17.10;85.40;;;16.46;52.08;100057.91;5026992;28;20044;-50
2021/04/03 05:36:26;;;;;;;1.45;0.30;;;18.40;75.60;;;17.56;49.64;100066.50;5026054;28;20452;-54
2021/04/03 05:38:52;;;;;;;1.40;0.30;;;19.60;69.70;;;18.04;48.12;100060.28;5009388;28;20041;-52
2021/04/03 05:41:18;;;;;;;6.05;2.75;;;20.40;65.10;;;18.48;46.92;100059.66;5026170;28;20029;-49
2021/04/03 05:43:47;;;;;;;2.58;0.80;;;21.00;61.70;;;19.09;44.86;100059.31;5024778;28;20507;-52
2021/04/03 05:46:18;;;;;;;0.93;0.30;;;21.70;57.80;;;18.59;45.15;100064.28;5023214;28;20405;-48
2021/04/03 05:48:45;;;;;;;0.60;0.20;;;22.10;54.10;;;17.94;47.04;100070.44;5009370;28;20057;-49
2021/04/03 05:51:15;;;;;;;1.55;0.43;;;21.70;55.60;;;18.16;46.50;100074.50;5024477;28;20045;-47
2021/04/03 05:53:41;;;;;;;2.50;0.40;;;22.00;54.80;;;17.98;45.96;100067.19;5025497;28;20113;-51
2021/04/03 05:56:07;;;;;;;3.15;0.57;;;22.00;53.00;;;18.33;45.79;100059.09;5025608;28;20132;-48
2021/04/03 05:58:33;;;;;;;1.08;0.40;;;22.00;54.00;;;18.89;44.55;100065.47;5027157;28;20037;-49
2021/04/03 06:00:59;;;;;;;0.82;0.22;;;22.80;52.10;;;18.99;44.03;100069.50;5025106;28;20596;-48
2021/04/03 06:03:25;;;;;;;1.05;0.20;;;23.10;51.20;;;19.31;43.10;100068.56;5026021;28;20116;-49
2021/04/03 06:05:52;;;;;;;2.05;0.73;;;23.50;50.50;;;19.65;42.76;100071.84;5026531;28;20123;-50
2021/04/03 06:08:19;;;;;;;2.05;0.20;;;24.00;49.40;;;19.63;42.36;100071.25;5027452;28;20101;-50
2021/04/03 06:11:16;;;;;;;2.20;0.30;;;24.20;47.50;;;19.35;39.96;100080.31;5026324;28;20156;-49
2021/04/03 06:13:55;;;;;;;1.75;0.20;;;24.10;45.30;;;19.29;41.71;100075.88;5013537;28;20048;-49
2021/04/03 06:16:33;;;;;;;1.45;0.60;;;24.00;47.80;;;19.52;41.84;100078.00;5026831;28;20049;-47
2021/04/03 06:19:28;;;;;;;1.52;0.30;;;24.40;46.50;;;20.04;40.01;100083.97;5029438;28;20030;-50
2021/04/03 06:22:01;;;;;;;3.28;0.50;;;25.10;44.10;;;19.96;41.04;100071.81;5011135;28;20111;-53
2021/04/03 06:24:32;;;;;;;1.65;0.25;;;25.10;45.40;;;20.46;39.89;100077.91;5011960;28;20164;-47
2021/04/03 06:27:09;;;;;;;2.13;0.35;;;25.60;44.50;;;20.84;38.68;100069.78;5026493;28;20033;-48
2021/04/03 06:29:47;;;;;;;2.15;0.30;;;25.90;43.60;;;20.98;37.56;100075.75;5030782;28;20065;-48
2021/04/03 06:32:31;;;;;;;0.63;0.30;;;26.30;42.00;;;20.87;37.10;100084.41;5028223;28;20120;-50
2021/04/03 06:34:57;;;;;;;2.05;0.20;;;26.00;41.30;;;20.51;38.13;100082.56;5027384;28;20037;-48
2021/04/03 06:37:32;;;;;;;1.35;0.40;;;25.50;42.40;;;19.76;38.00;100087.03;5029034;28;20127;-47
2021/04/03 06:40:01;;;;;;;1.13;0.40;;;23.80;43.70;;;19.01;39.55;100084.09;5029877;28;20599;-47
2021/04/03 06:42:38;;;;;;;2.05;0.60;;;22.20;46.80;;;18.18;40.28;100094.38;5028756;28;20036;-55
2021/04/03 06:45:32;;;;;;;2.70;0.85;;;20.50;49.70;;;17.04;41.32;100090.81;5025825;28;20515;-54
2021/04/03 06:48:06;;;;;;;1.40;0.65;;;18.70;52.40;;;16.56;43.16;100097.81;5016654;28;20118;-49
2021/04/03 06:50:37;;;;;;;1.30;0.95;;;17.90;55.10;;;16.36;43.46;100096.88;5028678;28;20043;-50
2021/04/03 06:53:10;;;;;;;4.10;1.15;;;17.50;56.40;;;16.08;43.15;100105.53;5028053;28;20029;-53
2021/04/03 06:55:37;;;;;;;3.88;1.13;;;17.10;56.20;;;16.07;44.19;100106.53;5027833;28;20120;-51
2021/04/03 06:58:06;;;;;;;4.30;1.42;;;16.90;57.30;;;15.61;43.15;100113.94;5029822;28;20029;-46
2021/04/03 07:00:33;;;;;;;3.88;2.00;;;16.60;55.30;;;14.40;44.16;100132.66;5028765;28;20489;-51
2021/04/03 07:03:16;;;;;;;5.80;1.83;;;15.60;56.40;;;14.00;46.03;100127.75;5030344;28;20025;-46
2021/04/03 07:05:45;;;;;;;3.83;1.92;;;14.90;59.70;;;14.07;46.05;100123.44;5028720;28;20124;-55
2021/04/03 07:08:11;;;;;;;3.88;1.98;;;14.70;60.00;;;13.77;46.61;100106.78;5029663;28;20041;-52
2021/04/03 07:10:40;;;;;;;2.80;1.75;;;14.50;60.50;;;13.84;46.55;100133.91;5030320;28;20140;-48
2021/04/03 07:13:11;;;;;;;2.63;1.15;;;14.40;60.70;;;14.05;45.53;100128.03;5012037;28;20041;-55
2021/04/03 07:15:37;;;;;;;2.05;1.38;;;14.50;60.20;;;14.16;45.02;100122.41;5011020;28;20133;-53
2021/04/03 07:18:07;;;;;;;3.33;1.40;;;14.80;59.20;;;14.40;44.34;100124.81;5030087;28;20041;-50
2021/04/03 07:20:34;;;;;;;2.42;1.23;;;15.10;58.60;;;14.54;44.21;100168.63;5029975;28;20061;-49
2021/04/03 07:23:06;;;;;;;3.47;1.52;;;15.20;58.80;;;14.10;44.67;100134.41;5029596;28;20422;-49
2021/04/03 07:25:38;;;;;;;2.97;1.88;;;14.90;58.60;;;14.09;45.17;100143.25;5028605;28;20037;-48
2021/04/03 07:28:05;;;;;;;2.65;1.88;;;14.70;59.60;;;14.18;44.71;100143.97;5029573;28;20041;-49
2021/04/03 07:30:40;;;;;;;2.67;1.38;;;14.70;59.30;;;14.08;44.92;100161.75;5028386;28;20493;-49
2021/04/03 07:33:21;;;;;;;4.40;1.50;;;14.60;59.70;;;13.72;45.57;100148.38;5028837;28;20034;-53
2021/04/03 07:35:48;;;;;;;2.15;1.10;;;14.30;60.10;;;13.71;45.23;100167.69;5028691;28;20033;-50
2021/04/03 07:38:35;;;;;;;3.25;1.25;;;14.30;60.20;;;14.04;44.09;100182.25;5028952;28;20057;-54
2021/04/03 07:41:17;;;;;;;3.03;1.27;;;14.50;60.00;;;14.24;42.83;100154.56;5028614;28;20394;-47
2021/04/03 07:43:49;;;;;;;3.05;1.13;;;14.60;58.20;;;13.95;43.46;100162.31;5029214;28;20389;-50
2021/04/03 07:46:20;;;;;;;2.97;1.15;;;14.50;58.20;;;14.24;42.77;100162.44;5028705;28;20037;-53
2021/04/03 07:48:58;;;;;;;4.03;1.70;;;14.70;57.60;;;14.18;42.96;100178.84;5029079;28;20041;-54
2021/04/03 07:51:23;;;;;;;2.03;0.93;;;14.60;58.00;;;14.24;42.49;100180.78;5028520;28;20045;-51
2021/04/03 07:53:52;;;;;;;2.95;1.17;;;14.80;58.00;;;14.19;42.05;100192.75;5028589;28;20037;-52
2021/04/03 07:56:25;;;;;;;2.75;1.23;;;14.70;56.80;;;14.55;41.82;100203.50;5027989;28;20060;-54
2021/04/03 07:58:57;;;;;;;3.80;1.10;;;14.90;57.10;;;14.39;41.32;100185.25;5028309;28;20456;-48
2021/04/03 08:01:26;;;;;;;5.55;1.00;;;14.90;56.60;;;14.64;41.80;100194.59;5028729;28;20036;-47
2021/04/03 08:03:57;;;;;;;2.42;1.02;;;15.00;56.80;;;14.55;41.54;100200.91;5028768;28;20458;-50
2021/04/03 08:06:41;;;;;;;2.88;1.10;;;15.00;56.60;;;14.91;40.22;100190.56;5027902;28;20104;-48
2021/04/03 08:09:17;;;;;;;1.65;0.90;;;15.20;55.90;;;15.13;40.80;100209.84;5019016;28;20053;-49
2021/04/03 08:11:45;;;;;;;1.98;0.75;;;15.40;56.50;;;15.45;39.79;100211.31;5028817;28;20164;-52
2021/04/03 08:14:14;;;;;;;1.95;1.05;;;15.80;54.70;;;14.89;39.57;100208.28;5027993;28;20116;-57
2021/04/03 08:16:42;;;;;;;3.03;1.08;;;15.50;53.60;;;15.26;39.36;100217.91;5027479;28;20543;-56
2021/04/03 08:19:10;;;;;;;1.80;1.05;;;15.60;54.40;;;15.40;38.67;100221.53;5027884;28;20362;-55
2021/04/03 08:21:46;;;;;;;2.78;1.23;;;15.80;53.70;;;15.06;37.88;100208.94;5027507;28;20524;-50
2021/04/03 08:24:12;;;;;;;;;;;15.60;52.60;;;15.57;38.96;100236.94;5028654;28;20029;-46
2021/04/03 08:26:40;;;;;;;1.77;1.20;;;15.90;54.60;;;14.99;37.91;100240.31;5027779;28;19944;-55
2021/04/03 08:29:27;;;;;;;4.47;1.20;;;15.60;52.00;;;14.52;38.16;100238.75;5028137;28;20044;-52
2021/04/03 08:31:55;;;;;;;2.60;1.30;;;15.10;52.10;;;15.03;38.13;100211.94;5027847;28;20046;-55
2021/04/03 08:34:22;;;;;;;3.35;1.10;;;15.30;52.90;;;15.57;37.76;100229.06;5027620;28;20034;-53
2021/04/03 08:36:49;;;;;;;1.92;0.80;;;15.70;52.90;;;16.02;37.08;100242.13;5027393;28;20591;-49
2021/04/03 08:39:19;;;;;;;2.20;1.67;;;16.20;52.60;;;15.17;36.50;100232.09;5027910;28;20039;-52
2021/04/03 08:41:50;;;;;;;4.90;1.00;;;15.90;50.60;;;15.33;38.29;100221.44;5026708;28;20112;-52
2021/04/03 08:44:18;;;;;;;2.00;0.80;;;15.70;52.90;;;15.35;37.87;100227.31;5025589;28;20171;-54
2021/04/03 08:46:49;;;;;;;1.50;0.75;;;15.70;53.10;;;15.45;36.94;100234.94;5027610;28;20112;-56
2021/04/03 08:49:27;;;;;;;2.40;0.88;;;15.90;51.80;;;15.79;37.29;100232.56;5028166;28;20042;-58
2021/04/03 08:51:53;;;;;;;2.17;1.10;;;16.00;52.60;;;15.57;36.19;100244.84;5026977;28;20124;-61
2021/04/03 08:54:19;;;;;;;1.75;0.98;;;16.10;49.80;;;15.63;36.98;100245.88;5027334;28;20075;-55
2021/04/03 08:56:46;;;;;;;4.03;1.20;;;16.00;51.50;;;15.55;35.88;100251.22;5027061;28;20476;-53
2021/04/03 08:59:20;;;;;;;1.88;1.05;;;16.00;50.00;;;15.24;35.54;100254.00;5022765;28;20073;-52
2021/04/03 09:01:50;;;;;;;2.17;0.90;;;15.80;49.80;;;15.65;36.55;100243.06;5010344;28;20053;-59
2021/04/03 09:04:18;;;;;;;2.47;1.20;;;15.90;51.40;;;16.21;34.69;100231.81;5026615;28;20083;-57
2021/04/03 09:06:55;;;;;;;2.30;0.80;;;16.50;49.40;;;16.08;34.05;100239.53;5009972;28;20038;-48
2021/04/03 09:09:23;;;;;;;1.75;0.82;;;16.50;48.70;;;16.32;34.88;100237.59;5026502;28;20045;-53
2021/04/03 09:12:10;;;;;;;1.85;0.93;;;16.60;49.60;;;15.87;34.28;100245.59;5026917;28;20080;-55
2021/04/03 09:14:53;;;;;;;2.45;0.90;;;16.40;48.50;;;15.90;33.91;100239.16;5009203;28;20500;-59
2021/04/03 09:17:21;;;;;;;2.78;0.52;;;16.30;48.60;;;15.85;35.39;100246.78;5026703;28;20473;-55
2021/04/03 09:19:48;;;;;;;1.77;0.80;;;16.30;49.40;;;16.15;34.49;100237.00;5026773;28;20061;-54
2021/04/03 09:22:17;;;;;;;1.85;1.00;;;16.40;49.00;;;16.06;34.55;100241.56;5028137;28;20204;-53
2021/04/03 09:24:57;;;;;;;2.15;0.77;;;16.50;48.50;;;16.12;33.07;100248.69;5026249;28;20037;-57
2021/04/03 09:27:28;;;;;;;1.67;0.70;;;16.50;48.20;;;16.33;34.06;100250.53;5027743;28;20041;-58
2021/04/03 09:30:05;;;;;;;1.65;0.57;;;16.50;48.80;;;16.26;33.99;100254.91;5026928;28;20041;-55
2021/04/03 09:32:47;;;;;;;1.70;0.93;;;16.70;48.30;;;16.85;33.86;100244.97;5026546;28;20044;-55
2021/04/03 09:35:27;;;;;;;4.30;0.75;;;17.00;49.30;;;16.51;32.27;100250.13;5027206;28;20052;-54
2021/04/03 09:38:01;;;;;;;2.40;1.13;;;17.00;46.80;;;16.52;31.62;100265.72;5008302;28;20049;-51
2021/04/03 09:40:43;;;;;;;0.82;0.40;;;17.00;46.90;;;16.47;30.49;100256.75;5027206;28;20033;-52
2021/04/03 09:43:14;;;;;;;2.03;0.40;;;16.90;44.80;;;16.68;30.26;100271.72;5027511;28;20404;-50
2021/04/03 09:45:41;;;;;;;1.52;0.60;;;17.00;43.80;;;16.32;31.26;100275.19;5026535;28;20177;-52
2021/04/03 09:48:10;;;;;;;1.60;0.85;;;16.80;45.20;;;16.07;31.96;100248.44;5026393;28;20037;-54
2021/04/03 09:50:38;;;;;;;2.00;0.80;;;16.60;45.50;;;15.70;32.49;100299.31;5009612;28;20029;-54
2021/04/03 09:53:12;;;;;;;4.85;0.82;;;16.30;46.00;;;15.55;32.47;100278.31;5028324;28;20091;-53
2021/04/03 09:55:39;;;;;;;1.83;0.70;;;16.00;46.40;;;16.05;32.91;100268.84;5031363;28;20079;-57
2021/04/03 09:58:05;;;;;;;2.92;0.82;;;16.20;47.30;;;16.23;33.16;100258.72;5031273;28;20105;-59
2021/04/03 10:00:32;;;;;;;2.67;1.02;;;16.50;47.70;;;16.09;33.02;100296.38;5031259;28;20045;-55
2021/04/03 10:02:59;;;;;;;1.77;0.60;;;16.50;47.20;;;16.25;33.46;100284.81;5030930;28;20044;-55
2021/04/03 10:05:25;;;;;;;1.40;0.73;;;16.50;47.90;;;16.01;33.05;100256.25;5013350;28;20504;-47
2021/04/03 10:07:51;;;;;;;2.55;0.40;;;16.40;47.10;;;16.39;33.74;100256.88;5030172;28;20112;-51
2021/04/03 10:10:17;;;;;;;2.63;0.85;;;16.50;48.50;;;16.56;32.72;100259.03;5012683;28;20420;-63
2021/04/03 10:12:43;;;;;;;1.45;0.40;;;16.80;46.70;;;16.38;32.14;100244.72;5031183;28;20037;-56
2021/04/03 10:15:09;;;;;;;1.95;1.05;;;16.70;46.10;;;16.67;31.91;100252.50;5030990;28;20116;-57
2021/04/03 10:17:36;;;;;;;0.60;0.30;;;16.90;46.10;;;17.03;29.91;100272.63;5029746;28;20068;-58
2021/04/03 10:20:04;;;;;;;1.65;0.55;;;17.30;43.80;;;16.65;29.08;100243.97;5029722;28;20124;-60
2021/04/03 10:22:30;;;;;;;4.35;0.50;;;17.10;42.80;;;16.63;29.36;100255.66;5030973;28;20333;-57
2021/04/03 10:24:56;;;;;;;0.95;0.40;;;17.00;43.20;;;16.87;29.56;100256.13;5029631;28;20041;-58
2021/04/03 10:27:22;;;;;;;1.08;0.50;;;17.00;43.50;;;16.77;29.45;100247.72;5029116;28;20784;-54
2021/04/03 10:29:48;;;;;;;1.45;0.40;;;17.10;43.30;;;17.01;29.34;100243.06;5030701;28;20037;-60